Alton, Alabama
Current Conditions -  °F | °C
As of 11:53 AM on Thursday 30 Oct 2014 (Local Time) from KBHM Reporting Station
Clear Clear  
Wind Chill: 18°   Ceiling: Unl
Heat Index: 18°   Visibility: 10mi
Dew Point:   Wind: 8mph
Humidity: 34%   Direction: 20°NNE
Pressure: 30.14"   Gusts: 17mph
Location:  33.58°N, 86.64°W
Report Text: KBHM 301653Z 02007G15KT 10SM CLR 18/02 A3014 RMK AO2 SLP204 T01780017
Loading
Personal Weather Stations






























Interactive Weather Map
Tropical Storm Tracking
New forecast layout! Learn more

10-Day Weather Forecast

Advertisements
Track Severe Weather on mobile